»·PEaware :: ACA792 KPDX-CYVR

ACA792 :: KPDX-CYVR

FLIGHT INFORMATION

Flight Status: Arrived
Operator:
Air Canada
More flights by this operator :: More flights under this callsign
Pilot: Jamie M. (26320)
Aircraft: Unknown
(B788)
More flights by this aircraft type
Origin: KPDX Portland Intl
United States
Destination: CYVR Vancouver Intl
Canada
More flights between these airports :: More routes between these airports
Route: BTG J1 SEA PAE GRIZZ6
File this flight plan on PilotEdge
Remarks: RMK / SIMBRIEF
Altitude:
(Current/Filed)
38,000ft
Speed:
(Current/Filed)
500kts
Departed: 28-Sep-19 05:19 PM
Arrived: 28-Sep-19 06:11 PM
Distance/Time
Traveled:
218nm/0:52
Distance/Time
To Go:
Arrived

Flight Plot

Page will automatically refresh every two minutes.

Flight plan parsing failed; only flown route is shown


Map Options




Map Legend


Flown Route
Filed Route
Departure Airport
Arrival Airport
Navaid (VOR, NDB)
Fix

Horizontal Profiles

Position Reports

Time Latitude Longitude Heading Altitude Ground
Speed
28-Sep-19 16:47 45.590750 -122.599628 139 43ft 0kts
28-Sep-19 16:48 45.590750 -122.599628 139 43ft 0kts
28-Sep-19 16:49 45.590750 -122.599628 139 43ft 0kts
28-Sep-19 16:50 45.590750 -122.599628 139 43ft 0kts
28-Sep-19 16:51 45.590750 -122.599628 139 43ft 0kts
28-Sep-19 16:52 45.590750 -122.599628 139 43ft 0kts
28-Sep-19 16:53 45.590750 -122.599628 139 43ft 0kts
28-Sep-19 16:54 45.590750 -122.599628 139 43ft 0kts
28-Sep-19 16:55 45.590750 -122.599628 139 43ft 0kts
28-Sep-19 16:56 45.590750 -122.599628 139 43ft 0kts
28-Sep-19 16:57 45.590750 -122.599628 139 43ft 0kts
28-Sep-19 16:58 45.590750 -122.599628 139 43ft 0kts
28-Sep-19 16:59 45.590750 -122.599628 139 43ft 0kts
28-Sep-19 17:00 45.590750 -122.599628 139 43ft 0kts
28-Sep-19 17:01 45.590750 -122.599628 139 43ft 0kts
28-Sep-19 17:02 45.590750 -122.599628 139 43ft 0kts
28-Sep-19 17:03 45.590750 -122.599628 139 43ft 0kts
28-Sep-19 17:04 45.590750 -122.599628 139 43ft 0kts
28-Sep-19 17:05 45.590750 -122.599628 139 43ft 0kts
28-Sep-19 17:06 45.590750 -122.599628 139 43ft 0kts
28-Sep-19 17:07 45.590750 -122.599628 139 43ft 0kts
28-Sep-19 17:08 45.590750 -122.599628 139 43ft 0kts
28-Sep-19 17:09 45.591139 -122.600150 136 43ft 2kts
28-Sep-19 17:10 45.591262 -122.600665 39 43ft 2kts
28-Sep-19 17:11 45.591013 -122.600999 57 43ft 0kts
28-Sep-19 17:12 45.591014 -122.600997 57 43ft 0kts
28-Sep-19 17:13 45.591117 -122.600769 57 43ft 6kts
28-Sep-19 17:14 45.592782 -122.600039 36 43ft 9kts
28-Sep-19 17:15 45.595043 -122.598530 352 43ft 3kts
28-Sep-19 17:16 45.595054 -122.598529 357 43ft 0kts
28-Sep-19 17:17 45.595497 -122.597367 116 43ft 7kts
28-Sep-19 17:18 45.581801 -122.563118 119 756ft 187kts
28-Sep-19 17:19 45.553972 -122.495221 119 2614ft 207kts
28-Sep-19 17:20 45.525161 -122.421293 107 4407ft 229kts
28-Sep-19 17:21 45.569518 -122.367094 343 7285ft 269kts
28-Sep-19 17:22 45.622283 -122.445830 312 10479ft 296kts
28-Sep-19 17:23 45.687554 -122.539400 326 12561ft 355kts
28-Sep-19 17:24 45.778322 -122.582761 2 15995ft 354kts
28-Sep-19 17:25 45.878131 -122.570084 6 18814ft 365kts
28-Sep-19 17:26 45.981074 -122.553574 6 21197ft 379kts
28-Sep-19 17:27 46.087877 -122.536099 6 22862ft 390kts
28-Sep-19 17:28 46.195861 -122.518352 6 22921ft 391kts
28-Sep-19 17:29 46.305384 -122.500375 6 24673ft 402kts
28-Sep-19 17:30 46.417432 -122.481808 6 26751ft 410kts
28-Sep-19 17:31 46.531851 -122.462755 6 28629ft 419kts
28-Sep-19 17:32 46.648890 -122.443232 6 30437ft 428kts
28-Sep-19 17:33 46.769653 -122.422984 6 31878ft 445kts
28-Sep-19 17:34 46.893881 -122.402069 6 33772ft 450kts
28-Sep-19 17:35 47.017295 -122.381112 6 33183ft 439kts
28-Sep-19 17:36 47.135880 -122.360951 6 31197ft 429kts
28-Sep-19 17:37 47.251242 -122.341277 7 28803ft 404kts
28-Sep-19 17:38 47.362675 -122.322180 7 25744ft 400kts
28-Sep-19 17:39 47.473004 -122.308155 5 24243ft 398kts
28-Sep-19 17:40 47.584261 -122.300001 4 23917ft 402kts
28-Sep-19 17:41 47.696283 -122.292577 4 23610ft 403kts
28-Sep-19 17:42 47.808580 -122.285161 5 23286ft 403kts
28-Sep-19 17:43 47.920279 -122.279835 357 22601ft 400kts
28-Sep-19 17:44 48.029062 -122.309034 351 21124ft 395kts
28-Sep-19 17:45 48.135771 -122.340224 351 19566ft 384kts
28-Sep-19 17:46 48.238990 -122.370255 351 17968ft 371kts
28-Sep-19 17:47 48.338718 -122.399389 351 16534ft 362kts
28-Sep-19 17:48 48.437146 -122.428282 351 14991ft 356kts
28-Sep-19 17:49 48.533410 -122.456592 351 13674ft 347kts
28-Sep-19 17:50 48.622632 -122.483077 351 12352ft 303kts
28-Sep-19 17:51 48.701482 -122.506507 350 11140ft 282kts
28-Sep-19 17:52 48.756839 -122.586530 312 10523ft 277kts
28-Sep-19 17:53 48.806609 -122.674851 313 10100ft 273kts
28-Sep-19 17:54 48.856304 -122.761405 314 10035ft 271kts
28-Sep-19 17:55 48.906009 -122.848113 313 9999ft 271kts
28-Sep-19 17:56 48.955469 -122.934634 314 10010ft 271kts
28-Sep-19 17:57 49.004993 -123.021550 314 9981ft 271kts
28-Sep-19 17:58 49.054332 -123.108444 313 9776ft 271kts
28-Sep-19 17:59 49.089062 -123.205750 284 8874ft 258kts
28-Sep-19 18:00 49.105308 -123.308293 287 7795ft 242kts
28-Sep-19 18:01 49.121513 -123.402282 287 6878ft 211kts
28-Sep-19 18:02 49.135667 -123.483774 287 6130ft 191kts
28-Sep-19 18:03 49.159843 -123.549760 343 5081ft 186kts
28-Sep-19 18:04 49.209445 -123.558307 5 4304ft 177kts
28-Sep-19 18:05 49.230012 -123.498106 80 3224ft 176kts
28-Sep-19 18:06 49.230435 -123.424233 96 2506ft 175kts
28-Sep-19 18:07 49.222190 -123.351991 100 1994ft 172kts
28-Sep-19 18:08 49.214494 -123.279836 101 1104ft 173kts
28-Sep-19 18:09 49.206170 -123.209416 102 187ft 160kts
28-Sep-19 18:10 49.201013 -123.164532 100 27ft 35kts
28-Sep-19 18:11 49.200020 -123.161841 183 27ft 0kts
28-Sep-19 18:12 49.200017 -123.161841 183 27ft 0kts
28-Sep-19 18:13 49.200015 -123.161841 183 27ft 0kts
28-Sep-19 18:14 49.200014 -123.161841 183 27ft 0kts
28-Sep-19 18:15 49.198782 -123.162229 253 27ft 5kts

Navigation Log

Ident Type
Flight plan parsing failed, navigation log unavailable